<?xml version="1.0" encoding="UTF-8" standalone="no" ?>
<gpx xmlns="http://www.topografix.com/GPX/1/1" xmlns:xsi="http://www.w3.org/2001/XMLSchema-instance" xsi:schemaLocation="http://www.topografix.com/GPX/1/1 http://www.topografix.com/GPX/1/1/gpx.xsd" version="1.1" creator="VisuGPX - https://www.visugpx.com">
  <metadata>
    <name>De (chaumont ) Gistoux à Longueville 12 km vallée du Train</name>
  </metadata>
  <trk>
    <name><![CDATA[De Gistoux à Longueville par la vallée du Train]]></name>
    <trkseg>
      <trkpt lat="50.68434" lon="4.69696">
        <ele>86.191</ele>
        <time>2020-10-30T22:33:06Z</time>
      </trkpt>
      <trkpt lat="50.68434" lon="4.69749">
        <ele>86.481</ele>
        <time>2020-10-30T22:33:46Z</time>
      </trkpt>
      <trkpt lat="50.68517" lon="4.69709">
        <ele>83.419</ele>
        <time>2020-10-30T22:34:26Z</time>
      </trkpt>
      <trkpt lat="50.68617" lon="4.69673">
        <ele>83.507</ele>
        <time>2020-10-30T22:35:06Z</time>
      </trkpt>
      <trkpt lat="50.68668" lon="4.69662">
        <ele>87.14</ele>
        <time>2020-10-30T22:35:46Z</time>
      </trkpt>
      <trkpt lat="50.68717" lon="4.69628">
        <ele>88.811</ele>
        <time>2020-10-30T22:36:26Z</time>
      </trkpt>
      <trkpt lat="50.68749" lon="4.6965">
        <ele>92.515</ele>
        <time>2020-10-30T22:37:06Z</time>
      </trkpt>
      <trkpt lat="50.68782" lon="4.69751">
        <ele>104.8</ele>
      </trkpt>
      <trkpt lat="50.68796" lon="4.69781">
        <ele>106.4</ele>
      </trkpt>
      <trkpt lat="50.68832" lon="4.69827">
        <ele>106.943</ele>
        <time>2020-10-30T22:39:06Z</time>
      </trkpt>
      <trkpt lat="50.68843" lon="4.69843">
        <ele>105.559</ele>
        <time>2020-10-30T22:39:46Z</time>
      </trkpt>
      <trkpt lat="50.68885" lon="4.69866">
        <ele>113.9</ele>
      </trkpt>
      <trkpt lat="50.68904" lon="4.69876">
        <ele>114.3</ele>
      </trkpt>
      <trkpt lat="50.68955" lon="4.69919">
        <ele>108.816</ele>
        <time>2020-10-30T22:41:46Z</time>
      </trkpt>
      <trkpt lat="50.68961" lon="4.69999">
        <ele>113.207</ele>
        <time>2020-10-30T22:42:26Z</time>
      </trkpt>
      <trkpt lat="50.6895" lon="4.7">
        <ele>115.535</ele>
        <time>2020-10-30T22:43:06Z</time>
      </trkpt>
      <trkpt lat="50.68932" lon="4.69975">
        <ele>112.3</ele>
      </trkpt>
      <trkpt lat="50.68894" lon="4.70073">
        <ele>102.08</ele>
        <time>2020-10-30T22:44:26Z</time>
      </trkpt>
      <trkpt lat="50.68887" lon="4.70092">
        <ele>108.8</ele>
      </trkpt>
      <trkpt lat="50.68866" lon="4.7015">
        <ele>107.6</ele>
      </trkpt>
      <trkpt lat="50.68889" lon="4.70193">
        <ele>109.9</ele>
      </trkpt>
      <trkpt lat="50.68898" lon="4.70229">
        <ele>103.734</ele>
        <time>2020-10-30T22:47:06Z</time>
      </trkpt>
      <trkpt lat="50.68937" lon="4.70304">
        <ele>116.2</ele>
      </trkpt>
      <trkpt lat="50.68961" lon="4.70345">
        <ele>118.5</ele>
      </trkpt>
      <trkpt lat="50.68972" lon="4.70356">
        <ele>118</ele>
      </trkpt>
      <trkpt lat="50.68993" lon="4.70364">
        <ele>109.007</ele>
        <time>2020-10-30T22:49:06Z</time>
      </trkpt>
      <trkpt lat="50.69024" lon="4.70383">
        <ele>110.007</ele>
        <time>2020-10-30T22:49:46Z</time>
      </trkpt>
      <trkpt lat="50.69076" lon="4.70434">
        <ele>113.694</ele>
        <time>2020-10-30T22:50:26Z</time>
      </trkpt>
      <trkpt lat="50.69096" lon="4.70471">
        <ele>116.445</ele>
        <time>2020-10-30T22:51:06Z</time>
      </trkpt>
      <trkpt lat="50.69103" lon="4.7048">
        <ele>128.3</ele>
      </trkpt>
      <trkpt lat="50.6913" lon="4.70545">
        <ele>122.65</ele>
        <time>2020-10-30T22:53:06Z</time>
      </trkpt>
      <trkpt lat="50.69176" lon="4.70512">
        <ele>123.667</ele>
        <time>2020-10-30T22:53:46Z</time>
      </trkpt>
      <trkpt lat="50.69186" lon="4.70457">
        <ele>133.2</ele>
      </trkpt>
      <trkpt lat="50.69212" lon="4.7064">
        <ele>128.625</ele>
        <time>2020-10-30T22:55:06Z</time>
      </trkpt>
      <trkpt lat="50.69217" lon="4.70687">
        <ele>129.726</ele>
        <time>2020-10-30T22:55:46Z</time>
      </trkpt>
      <trkpt lat="50.6923" lon="4.70757">
        <ele>131.608</ele>
        <time>2020-10-30T22:56:26Z</time>
      </trkpt>
      <trkpt lat="50.69238" lon="4.70832">
        <ele>140.6</ele>
      </trkpt>
      <trkpt lat="50.69245" lon="4.70872">
        <ele>141</ele>
      </trkpt>
      <trkpt lat="50.69246" lon="4.70899">
        <ele>140.9</ele>
      </trkpt>
      <trkpt lat="50.69269" lon="4.70959">
        <ele>143</ele>
      </trkpt>
      <trkpt lat="50.69305" lon="4.70924">
        <ele>144</ele>
      </trkpt>
      <trkpt lat="50.69345" lon="4.70897">
        <ele>144.4</ele>
      </trkpt>
      <trkpt lat="50.6941" lon="4.71252">
        <ele>136.18</ele>
        <time>2020-10-30T22:59:46Z</time>
      </trkpt>
      <trkpt lat="50.69474" lon="4.71585">
        <ele>129.5</ele>
      </trkpt>
      <trkpt lat="50.69401" lon="4.71769">
        <ele>133.1</ele>
      </trkpt>
      <trkpt lat="50.69414" lon="4.71761">
        <ele>133</ele>
      </trkpt>
      <trkpt lat="50.69487" lon="4.7183">
        <ele>131.8</ele>
      </trkpt>
      <trkpt lat="50.69719" lon="4.72059">
        <ele>126.678</ele>
        <time>2020-10-30T23:02:26Z</time>
      </trkpt>
      <trkpt lat="50.69751" lon="4.72135">
        <ele>125</ele>
      </trkpt>
      <trkpt lat="50.69779" lon="4.7223">
        <ele>120.233</ele>
        <time>2020-10-30T23:03:06Z</time>
      </trkpt>
      <trkpt lat="50.6991" lon="4.7238">
        <ele>120.3</ele>
      </trkpt>
      <trkpt lat="50.69919" lon="4.72455">
        <ele>121</ele>
      </trkpt>
      <trkpt lat="50.6992" lon="4.725">
        <ele>119</ele>
      </trkpt>
      <trkpt lat="50.69907" lon="4.7254">
        <ele>105.538</ele>
        <time>2020-10-30T23:05:06Z</time>
      </trkpt>
      <trkpt lat="50.69899" lon="4.72581">
        <ele>122</ele>
      </trkpt>
      <trkpt lat="50.69893" lon="4.72618">
        <ele>123.6</ele>
      </trkpt>
      <trkpt lat="50.69896" lon="4.72667">
        <ele>122.9</ele>
      </trkpt>
      <trkpt lat="50.69898" lon="4.72709">
        <ele>123.2</ele>
      </trkpt>
      <trkpt lat="50.69895" lon="4.72734">
        <ele>123</ele>
      </trkpt>
      <trkpt lat="50.69901" lon="4.72764">
        <ele>109.294</ele>
        <time>2020-10-30T23:07:46Z</time>
      </trkpt>
      <trkpt lat="50.69904" lon="4.72784">
        <ele>123</ele>
      </trkpt>
      <trkpt lat="50.69902" lon="4.7282">
        <ele>122.6</ele>
      </trkpt>
      <trkpt lat="50.69919" lon="4.72854">
        <ele>108.547</ele>
        <time>2020-10-30T23:09:06Z</time>
      </trkpt>
      <trkpt lat="50.69932" lon="4.72878">
        <ele>123.1</ele>
      </trkpt>
      <trkpt lat="50.69923" lon="4.72902">
        <ele>123</ele>
      </trkpt>
      <trkpt lat="50.69911" lon="4.72922">
        <ele>121.9</ele>
      </trkpt>
      <trkpt lat="50.6993" lon="4.72947">
        <ele>123</ele>
      </trkpt>
      <trkpt lat="50.69945" lon="4.72982">
        <ele>114.914</ele>
        <time>2020-10-30T23:11:06Z</time>
      </trkpt>
      <trkpt lat="50.69961" lon="4.73046">
        <ele>125.3</ele>
      </trkpt>
      <trkpt lat="50.69965" lon="4.73119">
        <ele>121.665</ele>
        <time>2020-10-30T23:12:26Z</time>
      </trkpt>
      <trkpt lat="50.69967" lon="4.73173">
        <ele>129.6</ele>
      </trkpt>
      <trkpt lat="50.69969" lon="4.7329">
        <ele>130.4</ele>
      </trkpt>
      <trkpt lat="50.69978" lon="4.73319">
        <ele>130.4</ele>
      </trkpt>
      <trkpt lat="50.69999" lon="4.73336">
        <ele>127.238</ele>
        <time>2020-10-30T23:15:46Z</time>
      </trkpt>
      <trkpt lat="50.70038" lon="4.73519">
        <ele>134.264</ele>
        <time>2020-10-30T23:16:26Z</time>
      </trkpt>
      <trkpt lat="50.70032" lon="4.73576">
        <ele>133.2</ele>
      </trkpt>
      <trkpt lat="50.70031" lon="4.73695">
        <ele>139.243</ele>
        <time>2020-10-30T23:17:46Z</time>
      </trkpt>
      <trkpt lat="50.69996" lon="4.73701">
        <ele>139</ele>
      </trkpt>
      <trkpt lat="50.69928" lon="4.73667">
        <ele>138.1</ele>
      </trkpt>
      <trkpt lat="50.69914" lon="4.73756">
        <ele>136.7</ele>
      </trkpt>
      <trkpt lat="50.69919" lon="4.73766">
        <ele>137</ele>
      </trkpt>
      <trkpt lat="50.70022" lon="4.73807">
        <ele>139.972</ele>
        <time>2020-10-30T23:19:46Z</time>
      </trkpt>
      <trkpt lat="50.70057" lon="4.73832">
        <ele>139</ele>
      </trkpt>
      <trkpt lat="50.70078" lon="4.73868">
        <ele>139.7</ele>
      </trkpt>
      <trkpt lat="50.70054" lon="4.74023">
        <ele>140</ele>
      </trkpt>
      <trkpt lat="50.7005" lon="4.74087">
        <ele>139.4</ele>
      </trkpt>
      <trkpt lat="50.70079" lon="4.74091">
        <ele>141.779</ele>
        <time>2020-10-30T23:21:46Z</time>
      </trkpt>
      <trkpt lat="50.70136" lon="4.74094">
        <ele>139.7</ele>
      </trkpt>
      <trkpt lat="50.70176" lon="4.74048">
        <ele>142.555</ele>
        <time>2020-10-30T23:23:06Z</time>
      </trkpt>
      <trkpt lat="50.70187" lon="4.74001">
        <ele>141.641</ele>
        <time>2020-10-30T23:23:46Z</time>
      </trkpt>
      <trkpt lat="50.70195" lon="4.74004">
        <ele>141.582</ele>
        <time>2020-10-30T23:24:26Z</time>
      </trkpt>
      <trkpt lat="50.70235" lon="4.73893">
        <ele>139.143</ele>
        <time>2020-10-30T23:25:06Z</time>
      </trkpt>
      <trkpt lat="50.70266" lon="4.7392">
        <ele>138</ele>
      </trkpt>
      <trkpt lat="50.70333" lon="4.73517">
        <ele>136.207</ele>
        <time>2020-10-30T23:26:26Z</time>
      </trkpt>
      <trkpt lat="50.70539" lon="4.73482">
        <ele>135.5</ele>
      </trkpt>
      <trkpt lat="50.70587" lon="4.73232">
        <ele>134</ele>
      </trkpt>
      <trkpt lat="50.70618" lon="4.73039">
        <ele>131.1</ele>
      </trkpt>
      <trkpt lat="50.7064" lon="4.72765">
        <ele>125.8</ele>
      </trkpt>
      <trkpt lat="50.70645" lon="4.72691">
        <ele>125</ele>
      </trkpt>
      <trkpt lat="50.70673" lon="4.7256">
        <ele>126.716</ele>
        <time>2020-10-30T23:29:06Z</time>
      </trkpt>
      <trkpt lat="50.70684" lon="4.72108">
        <ele>119.4</ele>
      </trkpt>
      <trkpt lat="50.70784" lon="4.71844">
        <ele>120.5</ele>
      </trkpt>
      <trkpt lat="50.70729" lon="4.71865">
        <ele>121.5</ele>
      </trkpt>
      <trkpt lat="50.70732" lon="4.71557">
        <ele>119.8</ele>
      </trkpt>
      <trkpt lat="50.70736" lon="4.71427">
        <ele>118.3</ele>
      </trkpt>
      <trkpt lat="50.70739" lon="4.71303">
        <ele>113.6</ele>
      </trkpt>
      <trkpt lat="50.70723" lon="4.71086">
        <ele>89.607</ele>
        <time>2020-10-30T23:33:46Z</time>
      </trkpt>
      <trkpt lat="50.70717" lon="4.70929">
        <ele>89.8</ele>
      </trkpt>
      <trkpt lat="50.70716" lon="4.70902">
        <ele>87</ele>
      </trkpt>
      <trkpt lat="50.70733" lon="4.70827">
        <ele>86.1</ele>
      </trkpt>
      <trkpt lat="50.70722" lon="4.7081">
        <ele>84.3</ele>
      </trkpt>
      <trkpt lat="50.707" lon="4.70772">
        <ele>74.629</ele>
        <time>2020-10-30T23:36:26Z</time>
      </trkpt>
      <trkpt lat="50.70656" lon="4.70669">
        <ele>77.098</ele>
        <time>2020-10-30T23:37:06Z</time>
      </trkpt>
      <trkpt lat="50.70616" lon="4.70605">
        <ele>86</ele>
      </trkpt>
      <trkpt lat="50.70621" lon="4.70588">
        <ele>85.2</ele>
      </trkpt>
      <trkpt lat="50.70553" lon="4.70474">
        <ele>97.4</ele>
      </trkpt>
      <trkpt lat="50.70434" lon="4.70401">
        <ele>104.197</ele>
        <time>2020-10-30T23:39:06Z</time>
      </trkpt>
      <trkpt lat="50.70369" lon="4.70311">
        <ele>105.723</ele>
        <time>2020-10-30T23:39:46Z</time>
      </trkpt>
      <trkpt lat="50.70264" lon="4.70127">
        <ele>112.225</ele>
        <time>2020-10-30T23:40:26Z</time>
      </trkpt>
      <trkpt lat="50.70077" lon="4.69838">
        <ele>100.7</ele>
      </trkpt>
      <trkpt lat="50.7007" lon="4.69823">
        <ele>98.8</ele>
      </trkpt>
      <trkpt lat="50.70096" lon="4.69704">
        <ele>93.411</ele>
        <time>2020-10-30T23:42:26Z</time>
      </trkpt>
      <trkpt lat="50.70063" lon="4.69577">
        <ele>90</ele>
      </trkpt>
      <trkpt lat="50.70052" lon="4.69535">
        <ele>88</ele>
      </trkpt>
      <trkpt lat="50.7005" lon="4.69491">
        <ele>90.567</ele>
        <time>2020-10-30T23:43:46Z</time>
      </trkpt>
      <trkpt lat="50.70093" lon="4.6942">
        <ele>87.6</ele>
      </trkpt>
      <trkpt lat="50.70181" lon="4.69283">
        <ele>69.773</ele>
        <time>2020-10-30T23:45:06Z</time>
      </trkpt>
      <trkpt lat="50.70199" lon="4.6923">
        <ele>67.389</ele>
        <time>2020-10-30T23:45:46Z</time>
      </trkpt>
      <trkpt lat="50.70197" lon="4.6916">
        <ele>68.242</ele>
        <time>2020-10-30T23:46:26Z</time>
      </trkpt>
      <trkpt lat="50.70171" lon="4.69164">
        <ele>66.622</ele>
        <time>2020-10-30T23:47:06Z</time>
      </trkpt>
      <trkpt lat="50.70159" lon="4.69168">
        <ele>71</ele>
      </trkpt>
      <trkpt lat="50.70151" lon="4.69157">
        <ele>66.214</ele>
        <time>2020-10-30T23:47:46Z</time>
      </trkpt>
      <trkpt lat="50.7014" lon="4.6914">
        <ele>71</ele>
      </trkpt>
      <trkpt lat="50.70131" lon="4.69132">
        <ele>67.007</ele>
        <time>2020-10-30T23:48:26Z</time>
      </trkpt>
      <trkpt lat="50.7005" lon="4.69127">
        <ele>67.245</ele>
        <time>2020-10-30T23:49:06Z</time>
      </trkpt>
      <trkpt lat="50.70032" lon="4.69091">
        <ele>66.676</ele>
        <time>2020-10-30T23:49:46Z</time>
      </trkpt>
      <trkpt lat="50.69992" lon="4.69086">
        <ele>73</ele>
      </trkpt>
      <trkpt lat="50.69961" lon="4.691">
        <ele>71.39</ele>
        <time>2020-10-30T23:50:26Z</time>
      </trkpt>
      <trkpt lat="50.69953" lon="4.691">
        <ele>71.712</ele>
        <time>2020-10-30T23:51:06Z</time>
      </trkpt>
      <trkpt lat="50.69884" lon="4.69078">
        <ele>73.241</ele>
        <time>2020-10-30T23:51:46Z</time>
      </trkpt>
      <trkpt lat="50.69714" lon="4.69019">
        <ele>77.3</ele>
      </trkpt>
      <trkpt lat="50.69655" lon="4.69">
        <ele>73.584</ele>
        <time>2020-10-30T23:53:06Z</time>
      </trkpt>
      <trkpt lat="50.69639" lon="4.69024">
        <ele>80.4</ele>
      </trkpt>
      <trkpt lat="50.69435" lon="4.68959">
        <ele>73.7</ele>
      </trkpt>
      <trkpt lat="50.69406" lon="4.69018">
        <ele>78.2</ele>
      </trkpt>
      <trkpt lat="50.69303" lon="4.69071">
        <ele>82.007</ele>
        <time>2020-10-30T23:55:46Z</time>
      </trkpt>
      <trkpt lat="50.69209" lon="4.69084">
        <ele>79.679</ele>
        <time>2020-10-30T23:56:26Z</time>
      </trkpt>
      <trkpt lat="50.69178" lon="4.69083">
        <ele>86</ele>
      </trkpt>
      <trkpt lat="50.6916" lon="4.69077">
        <ele>86.6</ele>
      </trkpt>
      <trkpt lat="50.69107" lon="4.69067">
        <ele>77.584</ele>
        <time>2020-10-30T23:57:46Z</time>
      </trkpt>
      <trkpt lat="50.69081" lon="4.69059">
        <ele>82</ele>
      </trkpt>
      <trkpt lat="50.6906" lon="4.6906">
        <ele>76.816</ele>
        <time>2020-10-30T23:58:26Z</time>
      </trkpt>
      <trkpt lat="50.69036" lon="4.6908">
        <ele>81</ele>
      </trkpt>
      <trkpt lat="50.69015" lon="4.69111">
        <ele>80.655</ele>
        <time>2020-10-30T23:59:06Z</time>
      </trkpt>
      <trkpt lat="50.68942" lon="4.69216">
        <ele>84.252</ele>
        <time>2020-10-30T23:59:46Z</time>
      </trkpt>
      <trkpt lat="50.68881" lon="4.6936">
        <ele>84.7</ele>
      </trkpt>
      <trkpt lat="50.68859" lon="4.69264">
        <ele>79.359</ele>
        <time>2020-10-31T00:01:06Z</time>
      </trkpt>
      <trkpt lat="50.68846" lon="4.69245">
        <ele>78.303</ele>
        <time>2020-10-31T00:01:46Z</time>
      </trkpt>
      <trkpt lat="50.68829" lon="4.69231">
        <ele>78.7</ele>
      </trkpt>
      <trkpt lat="50.68816" lon="4.69233">
        <ele>78.7</ele>
      </trkpt>
      <trkpt lat="50.68818" lon="4.69257">
        <ele>79.4</ele>
      </trkpt>
      <trkpt lat="50.68802" lon="4.69262">
        <ele>80</ele>
      </trkpt>
      <trkpt lat="50.68795" lon="4.6928">
        <ele>77.507</ele>
        <time>2020-10-31T00:03:06Z</time>
      </trkpt>
      <trkpt lat="50.68783" lon="4.69303">
        <ele>77.896</ele>
        <time>2020-10-31T00:03:46Z</time>
      </trkpt>
      <trkpt lat="50.68776" lon="4.69306">
        <ele>79.8</ele>
      </trkpt>
      <trkpt lat="50.68772" lon="4.69313">
        <ele>78.193</ele>
        <time>2020-10-31T00:05:46Z</time>
      </trkpt>
      <trkpt lat="50.68748" lon="4.6938">
        <ele>80.5</ele>
      </trkpt>
      <trkpt lat="50.68715" lon="4.69394">
        <ele>80.6</ele>
      </trkpt>
      <trkpt lat="50.6871" lon="4.69416">
        <ele>81</ele>
      </trkpt>
      <trkpt lat="50.68711" lon="4.69429">
        <ele>81.5</ele>
      </trkpt>
      <trkpt lat="50.687" lon="4.69444">
        <ele>81.6</ele>
      </trkpt>
      <trkpt lat="50.68702" lon="4.69456">
        <ele>81.7</ele>
      </trkpt>
      <trkpt lat="50.68688" lon="4.69483">
        <ele>80.415</ele>
        <time>2020-10-31T00:09:46Z</time>
      </trkpt>
      <trkpt lat="50.68664" lon="4.69495">
        <ele>80.707</ele>
        <time>2020-10-31T00:10:26Z</time>
      </trkpt>
      <trkpt lat="50.68648" lon="4.69498">
        <ele>80.932</ele>
        <time>2020-10-31T00:11:06Z</time>
      </trkpt>
      <trkpt lat="50.68628" lon="4.6938">
        <ele>82.5</ele>
      </trkpt>
      <trkpt lat="50.68605" lon="4.69443">
        <ele>81.987</ele>
        <time>2020-10-31T00:12:26Z</time>
      </trkpt>
      <trkpt lat="50.68594" lon="4.69467">
        <ele>84</ele>
      </trkpt>
      <trkpt lat="50.68587" lon="4.69497">
        <ele>85.5</ele>
      </trkpt>
      <trkpt lat="50.68581" lon="4.69506">
        <ele>81.918</ele>
        <time>2020-10-31T00:13:46Z</time>
      </trkpt>
      <trkpt lat="50.68524" lon="4.69514">
        <ele>86.4</ele>
      </trkpt>
      <trkpt lat="50.68479" lon="4.69527">
        <ele>84.221</ele>
        <time>2020-10-31T00:15:06Z</time>
      </trkpt>
      <trkpt lat="50.68439" lon="4.6955">
        <ele>86</ele>
      </trkpt>
      <trkpt lat="50.68409" lon="4.69569">
        <ele>86.449</ele>
        <time>2020-10-31T00:16:26Z</time>
      </trkpt>
      <trkpt lat="50.6841" lon="4.69636">
        <ele>86.723</ele>
        <time>2020-10-31T00:17:06Z</time>
      </trkpt>
      <trkpt lat="50.68409" lon="4.69712">
        <ele>87.107</ele>
        <time>2020-10-31T00:17:46Z</time>
      </trkpt>
      <trkpt lat="50.68421" lon="4.69723">
        <ele>86.75</ele>
        <time>2020-10-31T00:18:26Z</time>
      </trkpt>
    </trkseg>
  </trk>
</gpx>